Flood From: 19-02-2018 10:30 Until: 20-02-2018 06:00 warning for: Flood Level: Yellow info button

Although rather usual in this region, locally or potentially dangerous phenomena are expected. (such as local winds, summer thunderstorms, rising streams or high waves) Be aware and pay attention to the latest weather updates, especially if you carry out activities exposed to weather or close to a stream or shoreline. 


Meteo18 Weather Cam more information Meteo18 Weather Cam


Thunder radar more information blitzortung!


Rain radar more information rain snow radar


Visit our other weather sites:

Template documentation
and downloads

And another site



Weather Underground History page Text

Daily Summary for May 28, 2017 Units:  Both    English   Metric
« Previous Day
Next Day »
Daily Weekly Monthly Yearly Custom
  High: Low: Average:
Temperature: TemperatureC °F /  -17.8 °C 17.4 °F /  -8.1 °C 24.2 °F /  -4.3 °C
Dew Point: DewpointC °F /  -17.8 °C 15.1 °F /  -9.4 °C 17.3 °F /  -8.2 °C
Humidity: Humidity % 40 % 67 %
Wind Speed: WindSpeedKMH mph /  0 km/h - 2 mph /  3.2 km/h
Wind Gust: WindSpeedGustKMH mph /  0 km/h - -
Wind:- - South
Pressure: PressurehPa in /  0 hPa 1015.1 in /  34371.3 hPa -
Precipitation: 0.0 in /  0 mm    
Historical Graphs
 
 
Tabular Data for May 28, 2017
Time Temperature Dew Point Pressure Wind Wind Speed Wind Gust Humidity Rainfall Rate (Hourly)
TemperatureC °F /  -17.8 °C DewpointC °F /  -17.8 °C PressurehPa in /  0 hPa Calm     Humidity % HourlyPrecipMM in /  0 mm
00:02 20.5 °F /  -6.4 °C 17.9 °F /  -7.8 °C 1017.8 in /  34462.7 hPa Calm   3.2 mph /  5.1 km/h 85 % 0.0 in /  0 mm
00:12 20.7 °F /  -6.3 °C 17.5 °F /  -8.1 °C 1017.8 in /  34462.7 hPa WNW 1.6 mph /  2.6 km/h 3.2 mph /  5.1 km/h 82 % 0.0 in /  0 mm
00:17 20.6 °F /  -6.3 °C 17.6 °F /  -8 °C 1017.8 in /  34462.7 hPa WNW 3.2 mph /  5.1 km/h 3.2 mph /  5.1 km/h 83 % 0.0 in /  0 mm
00:22 20.4 °F /  -6.4 °C 17.6 °F /  -8 °C 1017.8 in /  34462.7 hPa WNW 1.6 mph /  2.6 km/h 3.2 mph /  5.1 km/h 84 % 0.0 in /  0 mm
00:32 20.4 °F /  -6.4 °C 17.4 °F /  -8.1 °C 1017.8 in /  34462.7 hPa WNW 1.6 mph /  2.6 km/h 3.2 mph /  5.1 km/h 83 % 0.0 in /  0 mm
00:37 20.5 °F /  -6.4 °C 17.3 °F /  -8.2 °C 1017.5 in /  34452.6 hPa Calm   3.2 mph /  5.1 km/h 82 % 0.0 in /  0 mm
00:42 20.4 °F /  -6.4 °C 17.2 °F /  -8.2 °C 1017.8 in /  34462.7 hPa Calm   3.2 mph /  5.1 km/h 82 % 0.0 in /  0 mm
00:47 20.7 °F /  -6.3 °C 17.3 °F /  -8.2 °C 1017.8 in /  34462.7 hPa NNW 3.2 mph /  5.1 km/h 3.2 mph /  5.1 km/h 81 % 0.0 in /  0 mm
00:52 20.7 °F /  -6.3 °C 17.1 °F /  -8.3 °C 1017.8 in /  34462.7 hPa NNW 1.6 mph /  2.6 km/h 3.2 mph /  5.1 km/h 80 % 0.0 in /  0 mm
00:57 20.6 °F /  -6.3 °C 17.0 °F /  -8.3 °C 1017.8 in /  34462.7 hPa NNW 1.6 mph /  2.6 km/h 4.8 mph /  7.7 km/h 80 % 0.0 in /  0 mm
01:02 20.1 °F /  -6.6 °C 17.1 °F /  -8.3 °C 1017.8 in /  34462.7 hPa WNW 1.6 mph /  2.6 km/h 4.8 mph /  7.7 km/h 83 % 0.0 in /  0 mm
01:12 19.8 °F /  -6.8 °C 17.2 °F /  -8.2 °C 1017.8 in /  34462.7 hPa WNW 1.6 mph /  2.6 km/h 3.2 mph /  5.1 km/h 85 % 0.0 in /  0 mm
01:17 19.8 °F /  -6.8 °C 17.0 °F /  -8.3 °C 1017.8 in /  34462.7 hPa WNW 1.6 mph /  2.6 km/h 3.2 mph /  5.1 km/h 84 % 0.0 in /  0 mm
01:22 19.8 °F /  -6.8 °C 16.8 °F /  -8.4 °C 1017.8 in /  34462.7 hPa Calm   3.2 mph /  5.1 km/h 83 % 0.0 in /  0 mm
01:32 19.7 °F /  -6.8 °C 16.7 °F /  -8.5 °C 1017.8 in /  34462.7 hPa Calm   3.2 mph /  5.1 km/h 83 % 0.0 in /  0 mm
01:37 19.6 °F /  -6.9 °C 16.6 °F /  -8.6 °C 1017.8 in /  34462.7 hPa Calm   1.6 mph /  2.6 km/h 83 % 0.0 in /  0 mm
01:42 19.8 °F /  -6.8 °C 16.8 °F /  -8.4 °C 1017.8 in /  34462.7 hPa North 1.6 mph /  2.6 km/h 1.6 mph /  2.6 km/h 83 % 0.0 in /  0 mm
01:52 20.2 °F /  -6.6 °C 16.6 °F /  -8.6 °C 1017.8 in /  34462.7 hPa Calm   3.2 mph /  5.1 km/h 80 % 0.0 in /  0 mm
01:57 20.3 °F /  -6.5 °C 16.5 °F /  -8.6 °C 1017.8 in /  34462.7 hPa Calm   3.2 mph /  5.1 km/h 79 % 0.0 in /  0 mm
02:07 20.4 °F /  -6.4 °C 16.4 °F /  -8.7 °C 1017.8 in /  34462.7 hPa North 1.6 mph /  2.6 km/h 3.2 mph /  5.1 km/h 78 % 0.0 in /  0 mm
02:12 20.4 °F /  -6.4 °C 16.4 °F /  -8.7 °C 1017.8 in /  34462.7 hPa Calm   3.2 mph /  5.1 km/h 78 % 0.0 in /  0 mm
02:17 20.2 °F /  -6.6 °C 16.4 °F /  -8.7 °C 1017.8 in /  34462.7 hPa Calm   1.6 mph /  2.6 km/h 79 % 0.0 in /  0 mm
02:22 19.9 °F /  -6.7 °C 16.3 °F /  -8.7 °C 1017.8 in /  34462.7 hPa Calm   1.6 mph /  2.6 km/h 80 % 0.0 in /  0 mm
02:32 20.2 °F /  -6.6 °C 16.2 °F /  -8.8 °C 1017.8 in /  34462.7 hPa WNW 3.2 mph /  5.1 km/h 3.2 mph /  5.1 km/h 78 % 0.0 in /  0 mm
02:37 19.5 °F /  -6.9 °C 16.3 °F /  -8.7 °C 1017.8 in /  34462.7 hPa WNW 3.2 mph /  5.1 km/h 3.2 mph /  5.1 km/h 82 % 0.0 in /  0 mm
02:42 19.3 °F /  -7.1 °C 16.3 °F /  -8.7 °C 1017.8 in /  34462.7 hPa WNW 1.6 mph /  2.6 km/h 4.8 mph /  7.7 km/h 83 % 0.0 in /  0 mm
02:52 19.7 °F /  -6.8 °C 16.3 °F /  -8.7 °C 1017.8 in /  34462.7 hPa Calm   4.8 mph /  7.7 km/h 81 % 0.0 in /  0 mm
02:57 19.5 °F /  -6.9 °C 16.2 °F /  -8.8 °C 1017.8 in /  34462.7 hPa Calm   1.6 mph /  2.6 km/h 81 % 0.0 in /  0 mm
03:02 19.5 °F /  -6.9 °C 16.2 °F /  -8.8 °C 1017.8 in /  34462.7 hPa Calm   1.6 mph /  2.6 km/h 81 % 0.0 in /  0 mm
03:12 19.2 °F /  -7.1 °C 16.1 °F /  -8.8 °C 1017.5 in /  34452.6 hPa Calm     82 % 0.0 in /  0 mm
03:17 19.3 °F /  -7.1 °C 16.1 °F /  -8.8 °C 1017.5 in /  34452.6 hPa Calm     82 % 0.0 in /  0 mm
03:22 19.4 °F /  -7 °C 16.1 °F /  -8.8 °C 1017.5 in /  34452.6 hPa Calm     81 % 0.0 in /  0 mm
03:32 18.7 °F /  -7.4 °C 15.8 °F /  -9 °C 1017.5 in /  34452.6 hPa WNW 3.2 mph /  5.1 km/h   83 % 0.0 in /  0 mm
03:37 18.4 °F /  -7.6 °C 15.8 °F /  -9 °C 1017.5 in /  34452.6 hPa WNW 1.6 mph /  2.6 km/h 4.8 mph /  7.7 km/h 85 % 0.0 in /  0 mm
03:42 18.5 °F /  -7.5 °C 16.1 °F /  -8.8 °C 1017.5 in /  34452.6 hPa Calm   4.8 mph /  7.7 km/h 86 % 0.0 in /  0 mm
03:47 18.7 °F /  -7.4 °C 15.9 °F /  -8.9 °C 1017.5 in /  34452.6 hPa WNW 1.6 mph /  2.6 km/h 4.8 mph /  7.7 km/h 84 % 0.0 in /  0 mm
03:52 18.4 °F /  -7.6 °C 15.8 °F /  -9 °C 1017.5 in /  34452.6 hPa WNW 1.6 mph /  2.6 km/h 4.8 mph /  7.7 km/h 85 % 0.0 in /  0 mm
03:57 18.2 °F /  -7.7 °C 15.8 °F /  -9 °C 1017.5 in /  34452.6 hPa WNW 1.6 mph /  2.6 km/h 3.2 mph /  5.1 km/h 86 % 0.0 in /  0 mm
04:02 18.2 °F /  -7.7 °C 15.8 °F /  -9 °C 1017.5 in /  34452.6 hPa WNW 3.2 mph /  5.1 km/h 3.2 mph /  5.1 km/h 86 % 0.0 in /  0 mm
04:12 18.2 °F /  -7.7 °C 15.8 °F /  -9 °C 1017.5 in /  34452.6 hPa WNW 1.6 mph /  2.6 km/h 3.2 mph /  5.1 km/h 86 % 0.0 in /  0 mm
04:17 18.3 °F /  -7.6 °C 15.9 °F /  -8.9 °C 1017.5 in /  34452.6 hPa Calm   3.2 mph /  5.1 km/h 86 % 0.0 in /  0 mm
04:22 18.2 °F /  -7.7 °C 15.8 °F /  -9 °C 1017.5 in /  34452.6 hPa NNW 1.6 mph /  2.6 km/h 3.2 mph /  5.1 km/h 86 % 0.0 in /  0 mm
04:32 18.5 °F /  -7.5 °C 15.7 °F /  -9.1 °C 1017.5 in /  34452.6 hPa Calm   1.6 mph /  2.6 km/h 84 % 0.0 in /  0 mm
04:42 18.2 °F /  -7.7 °C 15.5 °F /  -9.2 °C 1017.5 in /  34452.6 hPa Calm   1.6 mph /  2.6 km/h 84 % 0.0 in /  0 mm
04:47 17.9 °F /  -7.8 °C 15.7 °F /  -9.1 °C 1017.5 in /  34452.6 hPa Calm   1.6 mph /  2.6 km/h 87 % 0.0 in /  0 mm
04:52 18.0 °F /  -7.8 °C 15.8 °F /  -9 °C 1017.5 in /  34452.6 hPa WNW 1.6 mph /  2.6 km/h 1.6 mph /  2.6 km/h 87 % 0.0 in /  0 mm
04:57 18.1 °F /  -7.7 °C 15.7 °F /  -9.1 °C 1017.5 in /  34452.6 hPa Calm   1.6 mph /  2.6 km/h 86 % 0.0 in /  0 mm
05:02 18.2 °F /  -7.7 °C 15.6 °F /  -9.1 °C 1017.5 in /  34452.6 hPa NW 1.6 mph /  2.6 km/h 1.6 mph /  2.6 km/h 85 % 0.0 in /  0 mm
05:12 18.2 °F /  -7.7 °C 15.8 °F /  -9 °C 1017.5 in /  34452.6 hPa Calm   1.6 mph /  2.6 km/h 86 % 0.0 in /  0 mm
05:17 18.1 °F /  -7.7 °C 15.5 °F /  -9.2 °C 1017.5 in /  34452.6 hPa Calm   1.6 mph /  2.6 km/h 85 % 0.0 in /  0 mm
05:22 17.7 °F /  -7.9 °C 15.3 °F /  -9.3 °C 1017.5 in /  34452.6 hPa WNW 1.6 mph /  2.6 km/h 1.6 mph /  2.6 km/h 86 % 0.0 in /  0 mm
05:32 17.6 °F /  -8 °C 15.6 °F /  -9.1 °C 1017.8 in /  34462.7 hPa Calm   1.6 mph /  2.6 km/h 88 % 0.0 in /  0 mm
05:42 17.9 °F /  -7.8 °C 15.5 °F /  -9.2 °C 1017.8 in /  34462.7 hPa Calm   1.6 mph /  2.6 km/h 86 % 0.0 in /  0 mm
05:47 18.2 °F /  -7.7 °C 15.6 °F /  -9.1 °C 1017.8 in /  34462.7 hPa Calm   1.6 mph /  2.6 km/h 85 % 0.0 in /  0 mm
05:52 18.1 °F /  -7.7 °C 15.5 °F /  -9.2 °C 1017.8 in /  34462.7 hPa Calm   1.6 mph /  2.6 km/h 85 % 0.0 in /  0 mm
05:57 17.6 °F /  -8 °C 15.2 °F /  -9.3 °C 1017.8 in /  34462.7 hPa Calm   1.6 mph /  2.6 km/h 86 % 0.0 in /  0 mm
06:02 17.4 °F /  -8.1 °C 15.4 °F /  -9.2 °C 1017.8 in /  34462.7 hPa Calm     88 % 0.0 in /  0 mm
06:12 17.6 °F /  -8 °C 15.6 °F /  -9.1 °C 1017.8 in /  34462.7 hPa Calm     88 % 0.0 in /  0 mm
06:17 17.9 °F /  -7.8 °C 15.5 °F /  -9.2 °C 1017.8 in /  34462.7 hPa Calm     86 % 0.0 in /  0 mm
06:22 17.9 °F /  -7.8 °C 15.5 °F /  -9.2 °C 1017.8 in /  34462.7 hPa Calm     86 % 0.0 in /  0 mm
06:32 17.8 °F /  -7.9 °C 15.4 °F /  -9.2 °C 1017.8 in /  34462.7 hPa Calm     86 % 0.0 in /  0 mm
06:37 17.8 °F /  -7.9 °C 15.2 °F /  -9.3 °C 1017.8 in /  34462.7 hPa Calm     85 % 0.0 in /  0 mm
06:42 17.7 °F /  -7.9 °C 15.1 °F /  -9.4 °C 1017.8 in /  34462.7 hPa Calm     85 % 0.0 in /  0 mm
06:47 17.6 °F /  -8 °C 15.4 °F /  -9.2 °C 1017.8 in /  34462.7 hPa Calm     87 % 0.0 in /  0 mm
06:52 17.8 °F /  -7.9 °C 15.6 °F /  -9.1 °C 1017.8 in /  34462.7 hPa Calm     87 % 0.0 in /  0 mm
07:02 18.5 °F /  -7.5 °C 15.9 °F /  -8.9 °C 1017.8 in /  34462.7 hPa Calm     85 % 0.0 in /  0 mm
07:12 19.2 °F /  -7.1 °C 16.1 °F /  -8.8 °C 1017.8 in /  34462.7 hPa Calm     82 % 0.0 in /  0 mm
07:17 19.7 °F /  -6.8 °C 16.3 °F /  -8.7 °C 1017.8 in /  34462.7 hPa Calm     81 % 0.0 in /  0 mm
07:22 20.1 °F /  -6.6 °C 16.3 °F /  -8.7 °C 1017.8 in /  34462.7 hPa Calm     79 % 0.0 in /  0 mm
07:32 20.5 °F /  -6.4 °C 16.3 °F /  -8.7 °C 1017.8 in /  34462.7 hPa Calm     77 % 0.0 in /  0 mm
07:42 19.9 °F /  -6.7 °C 16.1 °F /  -8.8 °C 1017.8 in /  34462.7 hPa Calm     79 % 0.0 in /  0 mm
07:47 19.7 °F /  -6.8 °C 16.3 °F /  -8.7 °C 1017.8 in /  34462.7 hPa Calm     81 % 0.0 in /  0 mm
07:52 19.8 °F /  -6.8 °C 16.4 °F /  -8.7 °C 1017.8 in /  34462.7 hPa Calm     81 % 0.0 in /  0 mm
08:02 20.1 °F /  -6.6 °C 16.1 °F /  -8.8 °C 1017.8 in /  34462.7 hPa Calm     78 % 0.0 in /  0 mm
08:12 20.6 °F /  -6.3 °C 16.2 °F /  -8.8 °C 1018.2 in /  34476.3 hPa SSW 1.6 mph /  2.6 km/h 3.2 mph /  5.1 km/h 76 % 0.0 in /  0 mm
08:17 20.3 °F /  -6.5 °C 16.3 °F /  -8.7 °C 1018.2 in /  34476.3 hPa WSW 4.8 mph /  7.7 km/h 4.8 mph /  7.7 km/h 78 % 0.0 in /  0 mm
08:22 20.4 °F /  -6.4 °C 16.4 °F /  -8.7 °C 1018.2 in /  34476.3 hPa Calm   6.4 mph /  10.3 km/h 78 % 0.0 in /  0 mm
08:32 21.0 °F /  -6.1 °C 16.8 °F /  -8.4 °C 1017.8 in /  34462.7 hPa Calm   6.4 mph /  10.3 km/h 77 % 0.0 in /  0 mm
08:37 21.4 °F /  -5.9 °C 17.0 °F /  -8.3 °C 1017.8 in /  34462.7 hPa Calm   6.4 mph /  10.3 km/h 76 % 0.0 in /  0 mm
08:42 21.7 °F /  -5.7 °C 17.1 °F /  -8.3 °C 1017.8 in /  34462.7 hPa SSW 3.2 mph /  5.1 km/h 4.8 mph /  7.7 km/h 75 % 0.0 in /  0 mm
08:47 21.6 °F /  -5.8 °C 16.8 °F /  -8.4 °C 1017.8 in /  34462.7 hPa SSW 3.2 mph /  5.1 km/h 4.8 mph /  7.7 km/h 74 % 0.0 in /  0 mm
08:52 21.5 °F /  -5.8 °C 16.9 °F /  -8.4 °C 1018.2 in /  34476.3 hPa South 4.8 mph /  7.7 km/h 4.8 mph /  7.7 km/h 75 % 0.0 in /  0 mm
08:57 21.6 °F /  -5.8 °C 17.4 °F /  -8.1 °C 1018.2 in /  34476.3 hPa South 3.2 mph /  5.1 km/h 4.8 mph /  7.7 km/h 77 % 0.0 in /  0 mm
09:02 22.0 °F /  -5.6 °C 17.6 °F /  -8 °C 1018.2 in /  34476.3 hPa Calm   4.8 mph /  7.7 km/h 76 % 0.0 in /  0 mm
09:12 22.4 °F /  -5.3 °C 17.7 °F /  -7.9 °C 1018.2 in /  34476.3 hPa ESE 1.6 mph /  2.6 km/h 4.8 mph /  7.7 km/h 75 % 0.0 in /  0 mm
09:17 22.6 °F /  -5.2 °C 17.9 °F /  -7.8 °C 1018.2 in /  34476.3 hPa Calm   4.8 mph /  7.7 km/h 75 % 0.0 in /  0 mm
09:27 22.8 °F /  -5.1 °C 17.9 °F /  -7.8 °C 1018.2 in /  34476.3 hPa SE 1.6 mph /  2.6 km/h 4.8 mph /  7.7 km/h 74 % 0.0 in /  0 mm
09:32 23.1 °F /  -4.9 °C 18.2 °F /  -7.7 °C 1018.2 in /  34476.3 hPa Calm   4.8 mph /  7.7 km/h 74 % 0.0 in /  0 mm
09:42 23.6 °F /  -4.7 °C 18.3 °F /  -7.6 °C 1017.8 in /  34462.7 hPa Calm   4.8 mph /  7.7 km/h 72 % 0.0 in /  0 mm
09:47 23.7 °F /  -4.6 °C 18.4 °F /  -7.6 °C 1017.8 in /  34462.7 hPa ESE 3.2 mph /  5.1 km/h 4.8 mph /  7.7 km/h 72 % 0.0 in /  0 mm
09:52 23.7 °F /  -4.6 °C 18.8 °F /  -7.3 °C 1017.8 in /  34462.7 hPa ESE 1.6 mph /  2.6 km/h 4.8 mph /  7.7 km/h 74 % 0.0 in /  0 mm
09:57 23.9 °F /  -4.5 °C 18.8 °F /  -7.3 °C 1017.8 in /  34462.7 hPa East 3.2 mph /  5.1 km/h 4.8 mph /  7.7 km/h 73 % 0.0 in /  0 mm
10:02 23.8 °F /  -4.6 °C 18.4 °F /  -7.6 °C 1017.8 in /  34462.7 hPa East 3.2 mph /  5.1 km/h 6.4 mph /  10.3 km/h 72 % 0.0 in /  0 mm
10:12 24.0 °F /  -4.4 °C 18.6 °F /  -7.4 °C 1018.2 in /  34476.3 hPa ENE 1.6 mph /  2.6 km/h 8.0 mph /  12.9 km/h 72 % 0.0 in /  0 mm
10:17 24.0 °F /  -4.4 °C 18.9 °F /  -7.3 °C 1018.2 in /  34476.3 hPa ENE 6.4 mph /  10.3 km/h 8.0 mph /  12.9 km/h 73 % 0.0 in /  0 mm
10:22 23.9 °F /  -4.5 °C 18.8 °F /  -7.3 °C 1018.2 in /  34476.3 hPa ESE 3.2 mph /  5.1 km/h 8.0 mph /  12.9 km/h 73 % 0.0 in /  0 mm
10:32 24.5 °F /  -4.2 °C 19.1 °F /  -7.2 °C 1017.8 in /  34462.7 hPa Calm   8.0 mph /  12.9 km/h 72 % 0.0 in /  0 mm
10:42 25.2 °F /  -3.8 °C 19.3 °F /  -7.1 °C 1017.8 in /  34462.7 hPa East 3.2 mph /  5.1 km/h 6.4 mph /  10.3 km/h 70 % 0.0 in /  0 mm
10:52 25.4 °F /  -3.7 °C 18.8 °F /  -7.3 °C 1017.8 in /  34462.7 hPa ENE 3.2 mph /  5.1 km/h 8.0 mph /  12.9 km/h 67 % 0.0 in /  0 mm
10:57 25.7 °F /  -3.5 °C 18.9 °F /  -7.3 °C 1017.8 in /  34462.7 hPa SE 4.8 mph /  7.7 km/h 8.0 mph /  12.9 km/h 66 % 0.0 in /  0 mm
11:02 25.7 °F /  -3.5 °C 19.1 °F /  -7.2 °C 1017.8 in /  34462.7 hPa SE 1.6 mph /  2.6 km/h 9.7 mph /  15.6 km/h 67 % 0.0 in /  0 mm
11:07 25.7 °F /  -3.5 °C 19.1 °F /  -7.2 °C 1017.8 in /  34462.7 hPa Calm   9.7 mph /  15.6 km/h 67 % 0.0 in /  0 mm
11:12 26.1 °F /  -3.3 °C 19.5 °F /  -6.9 °C 1017.8 in /  34462.7 hPa SE 4.8 mph /  7.7 km/h 9.7 mph /  15.6 km/h 67 % 0.0 in /  0 mm
11:17 26.3 °F /  -3.2 °C 19.2 °F /  -7.1 °C 1017.8 in /  34462.7 hPa East 4.8 mph /  7.7 km/h 9.7 mph /  15.6 km/h 65 % 0.0 in /  0 mm
11:22 26.2 °F /  -3.2 °C 19.6 °F /  -6.9 °C 1017.8 in /  34462.7 hPa Calm   8.0 mph /  12.9 km/h 67 % 0.0 in /  0 mm
11:32 26.6 °F /  -3 °C 19.2 °F /  -7.1 °C 1017.8 in /  34462.7 hPa ENE 4.8 mph /  7.7 km/h 9.7 mph /  15.6 km/h 64 % 0.0 in /  0 mm
11:42 27.2 °F /  -2.7 °C 19.3 °F /  -7.1 °C 1017.8 in /  34462.7 hPa East 1.6 mph /  2.6 km/h 9.7 mph /  15.6 km/h 62 % 0.0 in /  0 mm
11:47 26.9 °F /  -2.8 °C 19.3 °F /  -7.1 °C 1017.8 in /  34462.7 hPa ENE 3.2 mph /  5.1 km/h 9.7 mph /  15.6 km/h 63 % 0.0 in /  0 mm
11:52 27.0 °F /  -2.8 °C 19.9 °F /  -6.7 °C 1017.8 in /  34462.7 hPa SE 3.2 mph /  5.1 km/h 9.7 mph /  15.6 km/h 65 % 0.0 in /  0 mm
11:57 27.4 °F /  -2.6 °C 19.7 °F /  -6.8 °C 1017.8 in /  34462.7 hPa Calm   9.7 mph /  15.6 km/h 63 % 0.0 in /  0 mm
12:02 27.4 °F /  -2.6 °C 19.5 °F /  -6.9 °C 1017.8 in /  34462.7 hPa SE 4.8 mph /  7.7 km/h 8.0 mph /  12.9 km/h 62 % 0.0 in /  0 mm
12:12 27.2 °F /  -2.7 °C 19.3 °F /  -7.1 °C 1017.8 in /  34462.7 hPa Calm   9.7 mph /  15.6 km/h 62 % 0.0 in /  0 mm
12:17 27.3 °F /  -2.6 °C 19.1 °F /  -7.2 °C 1017.8 in /  34462.7 hPa ESE 6.4 mph /  10.3 km/h 9.7 mph /  15.6 km/h 61 % 0.0 in /  0 mm
12:22 27.4 °F /  -2.6 °C 20.0 °F /  -6.7 °C 1017.8 in /  34462.7 hPa ESE 3.2 mph /  5.1 km/h 9.7 mph /  15.6 km/h 64 % 0.0 in /  0 mm
12:32 27.7 °F /  -2.4 °C 19.0 °F /  -7.2 °C 1017.8 in /  34462.7 hPa ENE 4.8 mph /  7.7 km/h 9.7 mph /  15.6 km/h 59 % 0.0 in /  0 mm
12:37 27.7 °F /  -2.4 °C 19.5 °F /  -6.9 °C 1017.8 in /  34462.7 hPa Calm   11.3 mph /  18.2 km/h 61 % 0.0 in /  0 mm
12:42 27.8 °F /  -2.3 °C 19.3 °F /  -7.1 °C 1017.8 in /  34462.7 hPa SSE 4.8 mph /  7.7 km/h 11.3 mph /  18.2 km/h 60 % 0.0 in /  0 mm
12:52 28.0 °F /  -2.2 °C 18.7 °F /  -7.4 °C 1017.8 in /  34462.7 hPa SE 3.2 mph /  5.1 km/h 9.7 mph /  15.6 km/h 57 % 0.0 in /  0 mm
13:02 28.4 °F /  -2 °C 18.8 °F /  -7.3 °C 1017.5 in /  34452.6 hPa ENE 8.0 mph /  12.9 km/h 9.7 mph /  15.6 km/h 56 % 0.0 in /  0 mm
13:12 28.6 °F /  -1.9 °C 18.7 °F /  -7.4 °C 1017.5 in /  34452.6 hPa SE 1.6 mph /  2.6 km/h 12.9 mph /  20.8 km/h 55 % 0.0 in /  0 mm
13:17 28.7 °F /  -1.8 °C 18.5 °F /  -7.5 °C 1017.5 in /  34452.6 hPa ENE 8.0 mph /  12.9 km/h 12.9 mph /  20.8 km/h 54 % 0.0 in /  0 mm
13:22 28.7 °F /  -1.8 °C 18.8 °F /  -7.3 °C 1017.5 in /  34452.6 hPa Calm   9.7 mph /  15.6 km/h 55 % 0.0 in /  0 mm
13:32 28.7 °F /  -1.8 °C 17.9 °F /  -7.8 °C 1017.5 in /  34452.6 hPa East 8.0 mph /  12.9 km/h 12.9 mph /  20.8 km/h 52 % 0.0 in /  0 mm
13:37 28.8 °F /  -1.8 °C 18.3 °F /  -7.6 °C 1017.5 in /  34452.6 hPa Calm   12.9 mph /  20.8 km/h 53 % 0.0 in /  0 mm
13:42 29.1 °F /  -1.6 °C 18.8 °F /  -7.3 °C 1017.5 in /  34452.6 hPa East 3.2 mph /  5.1 km/h 12.9 mph /  20.8 km/h 54 % 0.0 in /  0 mm
13:47 29.1 °F /  -1.6 °C 18.5 °F /  -7.5 °C 1017.5 in /  34452.6 hPa ESE 6.4 mph /  10.3 km/h 12.9 mph /  20.8 km/h 53 % 0.0 in /  0 mm
13:52 29.1 °F /  -1.6 °C 17.6 °F /  -8 °C 1017.5 in /  34452.6 hPa ESE 3.2 mph /  5.1 km/h 11.3 mph /  18.2 km/h 50 % 0.0 in /  0 mm
14:02 29.3 °F /  -1.5 °C 18.4 °F /  -7.6 °C 1017.5 in /  34452.6 hPa Calm   11.3 mph /  18.2 km/h 52 % 0.0 in /  0 mm
14:12 29.3 °F /  -1.5 °C 16.8 °F /  -8.4 °C 1017.5 in /  34452.6 hPa ESE 1.6 mph /  2.6 km/h 8.0 mph /  12.9 km/h 47 % 0.0 in /  0 mm
14:17 29.3 °F /  -1.5 °C 16.5 °F /  -8.6 °C 1017.2 in /  34442.4 hPa ESE 9.7 mph /  15.6 km/h 9.7 mph /  15.6 km/h 46 % 0.0 in /  0 mm
14:22 29.1 °F /  -1.6 °C 17.3 °F /  -8.2 °C 1017.5 in /  34452.6 hPa Calm   9.7 mph /  15.6 km/h 49 % 0.0 in /  0 mm
14:27 29.2 °F /  -1.6 °C 16.7 °F /  -8.5 °C 1017.5 in /  34452.6 hPa SE 3.2 mph /  5.1 km/h 9.7 mph /  15.6 km/h 47 % 0.0 in /  0 mm
14:32 29.6 °F /  -1.3 °C 16.1 °F /  -8.8 °C 1017.5 in /  34452.6 hPa SSE 8.0 mph /  12.9 km/h 9.7 mph /  15.6 km/h 44 % 0.0 in /  0 mm
14:42 29.8 °F /  -1.2 °C 17.3 °F /  -8.2 °C 1017.5 in /  34452.6 hPa ESE 3.2 mph /  5.1 km/h 11.3 mph /  18.2 km/h 47 % 0.0 in /  0 mm
14:47 30.1 °F /  -1.1 °C 17.5 °F /  -8.1 °C 1017.2 in /  34442.4 hPa ENE 4.8 mph /  7.7 km/h 11.3 mph /  18.2 km/h 47 % 0.0 in /  0 mm
14:52 30.1 °F /  -1.1 °C 16.9 °F /  -8.4 °C 1017.2 in /  34442.4 hPa ESE 4.8 mph /  7.7 km/h 11.3 mph /  18.2 km/h 45 % 0.0 in /  0 mm
14:57 30.1 °F /  -1.1 °C 16.9 °F /  -8.4 °C 1017.2 in /  34442.4 hPa ESE 6.4 mph /  10.3 km/h 9.7 mph /  15.6 km/h 45 % 0.0 in /  0 mm
15:02 30.2 °F /  -1 °C 17.6 °F /  -8 °C 1017.2 in /  34442.4 hPa SE 6.4 mph /  10.3 km/h 11.3 mph /  18.2 km/h 47 % 0.0 in /  0 mm
15:12 30.6 °F /  -0.8 °C 17.0 °F /  -8.3 °C 1017.2 in /  34442.4 hPa SSE 3.2 mph /  5.1 km/h 12.9 mph /  20.8 km/h 44 % 0.0 in /  0 mm
15:17 30.4 °F /  -0.9 °C 15.7 °F /  -9.1 °C 1017.2 in /  34442.4 hPa SSW 3.2 mph /  5.1 km/h 16.1 mph /  25.9 km/h 41 % 0.0 in /  0 mm
15:22 30.4 °F /  -0.9 °C 16.0 °F /  -8.9 °C 1017.2 in /  34442.4 hPa NE 4.8 mph /  7.7 km/h 16.1 mph /  25.9 km/h 42 % 0.0 in /  0 mm
15:32 30.4 °F /  -0.9 °C 15.7 °F /  -9.1 °C 1017.2 in /  34442.4 hPa WSW 3.2 mph /  5.1 km/h 11.3 mph /  18.2 km/h 41 % 0.0 in /  0 mm
15:37 30.7 °F /  -0.7 °C 15.5 °F /  -9.2 °C 1017.2 in /  34442.4 hPa South 6.4 mph /  10.3 km/h 11.3 mph /  18.2 km/h 40 % 0.0 in /  0 mm
15:42 30.8 °F /  -0.7 °C 17.1 °F /  -8.3 °C 1016.8 in /  34428.8 hPa ESE 6.4 mph /  10.3 km/h 8.0 mph /  12.9 km/h 44 % 0.0 in /  0 mm
15:47 30.5 °F /  -0.8 °C 16.9 °F /  -8.4 °C 1016.8 in /  34428.8 hPa SW 1.6 mph /  2.6 km/h 9.7 mph /  15.6 km/h 44 % 0.0 in /  0 mm
15:52 30.3 °F /  -0.9 °C 16.3 °F /  -8.7 °C 1016.8 in /  34428.8 hPa SW 3.2 mph /  5.1 km/h 11.3 mph /  18.2 km/h 43 % 0.0 in /  0 mm
15:57 30.6 °F /  -0.8 °C 18.0 °F /  -7.8 °C 1016.8 in /  34428.8 hPa East 3.2 mph /  5.1 km/h 11.3 mph /  18.2 km/h 47 % 0.0 in /  0 mm
16:02 30.8 °F /  -0.7 °C 18.2 °F /  -7.7 °C 1016.8 in /  34428.8 hPa ENE 8.0 mph /  12.9 km/h 11.3 mph /  18.2 km/h 47 % 0.0 in /  0 mm
16:12 30.7 °F /  -0.7 °C 17.4 °F /  -8.1 °C 1016.8 in /  34428.8 hPa ESE 1.6 mph /  2.6 km/h 9.7 mph /  15.6 km/h 45 % 0.0 in /  0 mm
16:17 30.8 °F /  -0.7 °C 17.1 °F /  -8.3 °C 1016.8 in /  34428.8 hPa East 4.8 mph /  7.7 km/h 9.7 mph /  15.6 km/h 44 % 0.0 in /  0 mm
16:22 30.3 °F /  -0.9 °C 16.7 °F /  -8.5 °C 1016.8 in /  34428.8 hPa East 12.9 mph /  20.8 km/h 12.9 mph /  20.8 km/h 44 % 0.0 in /  0 mm
16:32 30.4 °F /  -0.9 °C 17.8 °F /  -7.9 °C 1016.8 in /  34428.8 hPa East 6.4 mph /  10.3 km/h 12.9 mph /  20.8 km/h 47 % 0.0 in /  0 mm
16:42 30.3 °F /  -0.9 °C 17.4 °F /  -8.1 °C 1016.8 in /  34428.8 hPa East 3.2 mph /  5.1 km/h 12.9 mph /  20.8 km/h 46 % 0.0 in /  0 mm
16:47 30.3 °F /  -0.9 °C 17.7 °F /  -7.9 °C 1016.5 in /  34418.7 hPa SSE 3.2 mph /  5.1 km/h 11.3 mph /  18.2 km/h 47 % 0.0 in /  0 mm
16:52 30.3 °F /  -0.9 °C 17.0 °F /  -8.3 °C 1016.5 in /  34418.7 hPa East 1.6 mph /  2.6 km/h 11.3 mph /  18.2 km/h 45 % 0.0 in /  0 mm
16:57 30.2 °F /  -1 °C 17.3 °F /  -8.2 °C 1016.5 in /  34418.7 hPa East 9.7 mph /  15.6 km/h 9.7 mph /  15.6 km/h 46 % 0.0 in /  0 mm
17:07 30.3 °F /  -0.9 °C 17.4 °F /  -8.1 °C 1016.1 in /  34405.1 hPa ESE 3.2 mph /  5.1 km/h 12.9 mph /  20.8 km/h 46 % 0.0 in /  0 mm
17:12 30.3 °F /  -0.9 °C 16.7 °F /  -8.5 °C 1016.1 in /  34405.1 hPa ENE 3.2 mph /  5.1 km/h 12.9 mph /  20.8 km/h 44 % 0.0 in /  0 mm
17:17 30.2 °F /  -1 °C 17.6 °F /  -8 °C 1016.1 in /  34405.1 hPa Calm   12.9 mph /  20.8 km/h 47 % 0.0 in /  0 mm
17:22 30.2 °F /  -1 °C 17.3 °F /  -8.2 °C 1016.1 in /  34405.1 hPa Calm   11.3 mph /  18.2 km/h 46 % 0.0 in /  0 mm
17:32 30.4 °F /  -0.9 °C 16.8 °F /  -8.4 °C 1016.1 in /  34405.1 hPa SE 4.8 mph /  7.7 km/h 12.9 mph /  20.8 km/h 44 % 0.0 in /  0 mm
17:37 30.4 °F /  -0.9 °C 17.5 °F /  -8.1 °C 1016.1 in /  34405.1 hPa ESE 6.4 mph /  10.3 km/h 11.3 mph /  18.2 km/h 46 % 0.0 in /  0 mm
17:42 30.5 °F /  -0.8 °C 17.6 °F /  -8 °C 1016.1 in /  34405.1 hPa Calm   11.3 mph /  18.2 km/h 46 % 0.0 in /  0 mm
17:52 30.6 °F /  -0.8 °C 17.3 °F /  -8.2 °C 1016.1 in /  34405.1 hPa ESE 6.4 mph /  10.3 km/h 8.0 mph /  12.9 km/h 45 % 0.0 in /  0 mm
17:57 30.6 °F /  -0.8 °C 18.0 °F /  -7.8 °C 1016.1 in /  34405.1 hPa ESE 1.6 mph /  2.6 km/h 8.0 mph /  12.9 km/h 47 % 0.0 in /  0 mm
18:02 30.4 °F /  -0.9 °C 17.1 °F /  -8.3 °C 1016.1 in /  34405.1 hPa ENE 3.2 mph /  5.1 km/h 9.7 mph /  15.6 km/h 45 % 0.0 in /  0 mm
18:07 30.4 °F /  -0.9 °C 18.2 °F /  -7.7 °C 1016.1 in /  34405.1 hPa East 8.0 mph /  12.9 km/h 9.7 mph /  15.6 km/h 48 % 0.0 in /  0 mm
18:12 30.4 °F /  -0.9 °C 17.8 °F /  -7.9 °C 1016.1 in /  34405.1 hPa East 4.8 mph /  7.7 km/h 9.7 mph /  15.6 km/h 47 % 0.0 in /  0 mm
18:17 30.4 °F /  -0.9 °C 17.5 °F /  -8.1 °C 1015.8 in /  34395 hPa SE 4.8 mph /  7.7 km/h 9.7 mph /  15.6 km/h 46 % 0.0 in /  0 mm
18:22 30.3 °F /  -0.9 °C 18.1 °F /  -7.7 °C 1015.8 in /  34395 hPa Calm   9.7 mph /  15.6 km/h 48 % 0.0 in /  0 mm
18:27 30.3 °F /  -0.9 °C 17.4 °F /  -8.1 °C 1015.8 in /  34395 hPa East 1.6 mph /  2.6 km/h 11.3 mph /  18.2 km/h 46 % 0.0 in /  0 mm
18:32 30.4 °F /  -0.9 °C 17.1 °F /  -8.3 °C 1015.8 in /  34395 hPa East 8.0 mph /  12.9 km/h 11.3 mph /  18.2 km/h 45 % 0.0 in /  0 mm
18:42 30.6 °F /  -0.8 °C 17.7 °F /  -7.9 °C 1015.8 in /  34395 hPa East 3.2 mph /  5.1 km/h 11.3 mph /  18.2 km/h 46 % 0.0 in /  0 mm
18:52 30.6 °F /  -0.8 °C 17.3 °F /  -8.2 °C 1015.8 in /  34395 hPa WSW 1.6 mph /  2.6 km/h 9.7 mph /  15.6 km/h 45 % 0.0 in /  0 mm
19:02 30.6 °F /  -0.8 °C 17.7 °F /  -7.9 °C 1015.8 in /  34395 hPa SE 4.8 mph /  7.7 km/h 9.7 mph /  15.6 km/h 46 % 0.0 in /  0 mm
19:12 30.3 °F /  -0.9 °C 18.1 °F /  -7.7 °C 1015.8 in /  34395 hPa ESE 3.2 mph /  5.1 km/h 9.7 mph /  15.6 km/h 48 % 0.0 in /  0 mm
19:17 30.1 °F /  -1.1 °C 17.9 °F /  -7.8 °C 1015.8 in /  34395 hPa SSE 3.2 mph /  5.1 km/h 8.0 mph /  12.9 km/h 48 % 0.0 in /  0 mm
19:22 30.1 °F /  -1.1 °C 18.2 °F /  -7.7 °C 1015.8 in /  34395 hPa ESE 1.6 mph /  2.6 km/h 8.0 mph /  12.9 km/h 49 % 0.0 in /  0 mm
19:27 30.1 °F /  -1.1 °C 18.2 °F /  -7.7 °C 1015.8 in /  34395 hPa SE 1.6 mph /  2.6 km/h 6.4 mph /  10.3 km/h 49 % 0.0 in /  0 mm
19:32 30.2 °F /  -1 °C 18.0 °F /  -7.8 °C 1015.8 in /  34395 hPa Calm   6.4 mph /  10.3 km/h 48 % 0.0 in /  0 mm
19:37 30.3 °F /  -0.9 °C 18.7 °F /  -7.4 °C 1015.8 in /  34395 hPa ESE 1.6 mph /  2.6 km/h 4.8 mph /  7.7 km/h 50 % 0.0 in /  0 mm
19:42 30.1 °F /  -1.1 °C 18.8 °F /  -7.3 °C 1015.5 in /  34384.8 hPa South 1.6 mph /  2.6 km/h 4.8 mph /  7.7 km/h 51 % 0.0 in /  0 mm
19:52 29.8 °F /  -1.2 °C 19.2 °F /  -7.1 °C 1015.8 in /  34395 hPa Calm   4.8 mph /  7.7 km/h 53 % 0.0 in /  0 mm
19:57 29.7 °F /  -1.3 °C 20.0 °F /  -6.7 °C 1015.5 in /  34384.8 hPa Calm   3.2 mph /  5.1 km/h 56 % 0.0 in /  0 mm
20:02 29.4 °F /  -1.4 °C 19.7 °F /  -6.8 °C 1015.5 in /  34384.8 hPa Calm   3.2 mph /  5.1 km/h 56 % 0.0 in /  0 mm
20:12 29.1 °F /  -1.6 °C 19.4 °F /  -7 °C 1015.5 in /  34384.8 hPa Calm     56 % 0.0 in /  0 mm
20:17 28.9 °F /  -1.7 °C 19.2 °F /  -7.1 °C 1015.5 in /  34384.8 hPa Calm     56 % 0.0 in /  0 mm
20:22 28.8 °F /  -1.8 °C 18.6 °F /  -7.4 °C 1015.5 in /  34384.8 hPa Calm     54 % 0.0 in /  0 mm
20:32 29.1 °F /  -1.6 °C 18.2 °F /  -7.7 °C 1015.5 in /  34384.8 hPa Calm     52 % 0.0 in /  0 mm
20:42 28.3 °F /  -2.1 °C 18.7 °F /  -7.4 °C 1015.5 in /  34384.8 hPa Calm     56 % 0.0 in /  0 mm
20:47 27.8 °F /  -2.3 °C 18.8 °F /  -7.3 °C 1015.5 in /  34384.8 hPa Calm     58 % 0.0 in /  0 mm
20:52 27.6 °F /  -2.4 °C 18.6 °F /  -7.4 °C 1015.5 in /  34384.8 hPa Calm     58 % 0.0 in /  0 mm
20:57 27.4 °F /  -2.6 °C 18.4 °F /  -7.6 °C 1015.1 in /  34371.3 hPa Calm     58 % 0.0 in /  0 mm
21:02 27.2 °F /  -2.7 °C 18.8 °F /  -7.3 °C 1015.5 in /  34384.8 hPa Calm     60 % 0.0 in /  0 mm
21:12 26.2 °F /  -3.2 °C 19.1 °F /  -7.2 °C 1015.5 in /  34384.8 hPa Calm     65 % 0.0 in /  0 mm
21:17 25.4 °F /  -3.7 °C 18.1 °F /  -7.7 °C 1015.5 in /  34384.8 hPa Calm     64 % 0.0 in /  0 mm
21:22 25.1 °F /  -3.8 °C 17.8 °F /  -7.9 °C 1015.5 in /  34384.8 hPa Calm     64 % 0.0 in /  0 mm
21:32 24.4 °F /  -4.2 °C 17.9 °F /  -7.8 °C 1015.5 in /  34384.8 hPa Calm     67 % 0.0 in /  0 mm
21:37 23.9 °F /  -4.5 °C 17.4 °F /  -8.1 °C 1015.5 in /  34384.8 hPa Calm     67 % 0.0 in /  0 mm
21:42 23.7 °F /  -4.6 °C 17.2 °F /  -8.2 °C 1015.5 in /  34384.8 hPa Calm     67 % 0.0 in /  0 mm
21:47 23.8 °F /  -4.6 °C 17.3 °F /  -8.2 °C 1015.5 in /  34384.8 hPa Calm     67 % 0.0 in /  0 mm
21:52 23.6 °F /  -4.7 °C 17.3 °F /  -8.2 °C 1015.5 in /  34384.8 hPa Calm     68 % 0.0 in /  0 mm
21:57 23.3 °F /  -4.8 °C 17.7 °F /  -7.9 °C 1015.8 in /  34395 hPa WNW 1.6 mph /  2.6 km/h   71 % 0.0 in /  0 mm
22:02 22.9 °F /  -5.1 °C 17.8 °F /  -7.9 °C 1015.8 in /  34395 hPa WNW 1.6 mph /  2.6 km/h 1.6 mph /  2.6 km/h 73 % 0.0 in /  0 mm
22:07 22.8 °F /  -5.1 °C 17.9 °F /  -7.8 °C 1015.8 in /  34395 hPa WNW 1.6 mph /  2.6 km/h 1.6 mph /  2.6 km/h 74 % 0.0 in /  0 mm
22:12 22.4 °F /  -5.3 °C 18.0 °F /  -7.8 °C 1015.8 in /  34395 hPa WNW 3.2 mph /  5.1 km/h 3.2 mph /  5.1 km/h 76 % 0.0 in /  0 mm
22:17 22.2 °F /  -5.4 °C 18.2 °F /  -7.7 °C 1015.8 in /  34395 hPa WNW 1.6 mph /  2.6 km/h 3.2 mph /  5.1 km/h 78 % 0.0 in /  0 mm
22:22 22.0 °F /  -5.6 °C 18.2 °F /  -7.7 °C 1015.8 in /  34395 hPa WNW 3.2 mph /  5.1 km/h 3.2 mph /  5.1 km/h 79 % 0.0 in /  0 mm
22:32 21.9 °F /  -5.6 °C 18.3 °F /  -7.6 °C 1015.8 in /  34395 hPa WNW 1.6 mph /  2.6 km/h 3.2 mph /  5.1 km/h 80 % 0.0 in /  0 mm
22:37 21.9 °F /  -5.6 °C 17.9 °F /  -7.8 °C 1015.8 in /  34395 hPa Calm   3.2 mph /  5.1 km/h 78 % 0.0 in /  0 mm
22:42 21.8 °F /  -5.7 °C 17.8 °F /  -7.9 °C 1015.8 in /  34395 hPa Calm   3.2 mph /  5.1 km/h 78 % 0.0 in /  0 mm
22:47 21.6 °F /  -5.8 °C 17.6 °F /  -8 °C 1015.8 in /  34395 hPa WNW 3.2 mph /  5.1 km/h 3.2 mph /  5.1 km/h 78 % 0.0 in /  0 mm
22:52 21.7 °F /  -5.7 °C 17.9 °F /  -7.8 °C 1015.8 in /  34395 hPa Calm   3.2 mph /  5.1 km/h 79 % 0.0 in /  0 mm
22:57 21.7 °F /  -5.7 °C 17.7 °F /  -7.9 °C 1015.8 in /  34395 hPa WNW 1.6 mph /  2.6 km/h 3.2 mph /  5.1 km/h 78 % 0.0 in /  0 mm
23:02 21.9 °F /  -5.6 °C 17.5 °F /  -8.1 °C 1015.8 in /  34395 hPa NNW 1.6 mph /  2.6 km/h 3.2 mph /  5.1 km/h 76 % 0.0 in /  0 mm
23:12 21.7 °F /  -5.7 °C 17.3 °F /  -8.2 °C 1015.8 in /  34395 hPa NW 1.6 mph /  2.6 km/h 1.6 mph /  2.6 km/h 76 % 0.0 in /  0 mm
23:17 21.6 °F /  -5.8 °C 17.6 °F /  -8 °C 1015.8 in /  34395 hPa WNW 1.6 mph /  2.6 km/h 1.6 mph /  2.6 km/h 78 % 0.0 in /  0 mm
23:22 21.3 °F /  -5.9 °C 17.5 °F /  -8.1 °C 1015.5 in /  34384.8 hPa Calm   3.2 mph /  5.1 km/h 79 % 0.0 in /  0 mm
23:27 21.2 °F /  -6 °C 17.4 °F /  -8.1 °C 1015.5 in /  34384.8 hPa Calm   3.2 mph /  5.1 km/h 79 % 0.0 in /  0 mm
23:32 21.2 °F /  -6 °C 17.4 °F /  -8.1 °C 1015.5 in /  34384.8 hPa WNW 1.6 mph /  2.6 km/h 3.2 mph /  5.1 km/h 79 % 0.0 in /  0 mm
23:42 21.5 °F /  -5.8 °C 17.5 °F /  -8.1 °C 1015.5 in /  34384.8 hPa NNW 1.6 mph /  2.6 km/h 1.6 mph /  2.6 km/h 78 % 0.0 in /  0 mm
23:47 21.9 °F /  -5.6 °C 17.5 °F /  -8.1 °C 1015.5 in /  34384.8 hPa NNW 1.6 mph /  2.6 km/h 3.2 mph /  5.1 km/h 76 % 0.0 in /  0 mm
23:52 21.9 °F /  -5.6 °C 17.5 °F /  -8.1 °C 1015.5 in /  34384.8 hPa Calm   4.8 mph /  7.7 km/h 76 % 0.0 in /  0 mm
23:57 21.5 °F /  -5.8 °C 17.3 °F /  -8.2 °C 1015.5 in /  34384.8 hPa Calm   4.8 mph /  7.7 km/h 77 % 0.0 in /  0 mm
Meteo18
Compliments of Weather Underground - 4 mb

Script developed by  Jim McMurry - jmcmurry@mwt.net Adapted for the template by  Wim van der Kuil - Leuven-Template.eu

You find our weather info also at:

European Weather Network

Weather Underground

Equipment we use:

Weather-station
Davis Vue

Weather-program
Meteobridge

Weather-server
Raspberry PI 2 B+

Provider
1 and 1

Davis Vue

Meteobridge

Raspberry PI 2 B+

1 and 1